Time;durP1;ratioP1;P1;durP2;ratioP2;P2;SDS_P1;SDS_P2;PMS_P1;PMS_P2;Temp;Humidity;BMP_temperature;BMP_pressure;BME280_temperature;BME280_humidity;BME280_pressure;Samples;Min_cycle;Max_cycle;Signal;HPM_P1;HPM_P2
2022/07/09 00:01:27;;;;;;;1.25;0.98;;;15.20;99.90;;;;;;5049869;28;20051;-72
2022/07/09 00:03:54;;;;;;;0.20;0.20;;;15.20;99.90;;;;;;5053056;28;20036;-72
2022/07/09 00:06:20;;;;;;;1.05;0.77;;;15.20;99.90;;;;;;5054098;28;20037;-72
2022/07/09 00:08:46;;;;;;;1.23;0.38;;;15.20;99.90;;;;;;5054446;28;20115;-72
2022/07/09 00:11:11;;;;;;;0.25;0.25;;;15.20;99.90;;;;;;5053726;28;20045;-72
2022/07/09 00:13:37;;;;;;;0.47;0.20;;;15.20;99.90;;;;;;5054061;28;20041;-72
2022/07/09 00:16:02;;;;;;;1.10;0.85;;;15.10;99.90;;;;;;5053707;28;20044;-72
2022/07/09 00:18:28;;;;;;;1.00;0.52;;;15.00;99.90;;;;;;5053850;28;20521;-73
2022/07/09 00:20:55;;;;;;;0.57;0.55;;;15.00;99.90;;;;;;5053917;28;20128;-72
2022/07/09 00:23:21;;;;;;;2.47;0.90;;;15.00;99.90;;;;;;5054525;28;20120;-72
2022/07/09 00:25:46;;;;;;;0.90;0.70;;;15.00;99.90;;;;;;5054005;28;20128;-72
2022/07/09 00:28:12;;;;;;;2.60;0.95;;;15.00;99.90;;;;;;5054250;28;20045;-72
2022/07/09 00:30:37;;;;;;;0.55;0.55;;;15.00;99.90;;;;;;5054221;28;20108;-72
2022/07/09 00:33:03;;;;;;;0.65;0.52;;;15.00;99.90;;;;;;5053245;28;20045;-72
2022/07/09 00:35:29;;;;;;;1.38;0.80;;;15.10;99.90;;;;;;5053320;28;20045;-72
2022/07/09 00:37:54;;;;;;;0.60;0.52;;;15.00;99.90;;;;;;5053487;28;20045;-71
2022/07/09 00:40:20;;;;;;;1.98;0.80;;;15.00;99.90;;;;;;5053795;28;20048;-72
2022/07/09 00:42:45;;;;;;;0.10;0.10;;;15.00;99.90;;;;;;5053470;28;20045;-72
2022/07/09 00:45:11;;;;;;;0.30;0.30;;;15.00;99.90;;;;;;5053661;28;20049;-72
2022/07/09 00:47:37;;;;;;;0.03;0.03;;;15.00;99.90;;;;;;5053675;28;20056;-72
2022/07/09 00:50:04;;;;;;;0.88;0.57;;;15.00;99.90;;;;;;5053787;28;20068;-72
2022/07/09 00:52:31;;;;;;;2.33;1.30;;;15.00;99.90;;;;;;5053848;28;20049;-72
2022/07/09 00:54:59;;;;;;;0.65;0.52;;;15.00;99.90;;;;;;5053324;28;20479;-72
2022/07/09 00:57:25;;;;;;;0.20;0.20;;;15.00;99.90;;;;;;5052939;28;20068;-72
2022/07/09 00:59:51;;;;;;;2.53;0.60;;;15.00;99.90;;;;;;5055143;28;20059;-72
2022/07/09 01:02:19;;;;;;;0.73;0.65;;;15.00;99.90;;;;;;5052662;28;20060;-72
2022/07/09 01:04:45;;;;;;;0.98;0.65;;;15.00;99.90;;;;;;5052709;28;20057;-73
2022/07/09 01:07:11;;;;;;;3.63;1.08;;;15.10;99.90;;;;;;5053141;28;20048;-72
2022/07/09 01:09:38;;;;;;;0.20;0.10;;;15.10;99.90;;;;;;5052905;28;20628;-73
2022/07/09 01:12:04;;;;;;;1.15;0.70;;;15.20;99.90;;;;;;5052843;28;20123;-73
2022/07/09 01:14:30;;;;;;;1.65;1.15;;;15.20;99.90;;;;;;5053090;28;20056;-72
2022/07/09 01:17:04;;;;;;;4.28;0.28;;;15.20;99.90;;;;;;5052605;28;20041;-72
2022/07/09 01:19:31;;;;;;;1.65;1.00;;;15.20;99.90;;;;;;5052575;28;20037;-72
2022/07/09 01:21:57;;;;;;;1.35;0.95;;;15.20;99.90;;;;;;5052681;28;20056;-72
2022/07/09 01:24:24;;;;;;;1.23;1.05;;;15.30;99.90;;;;;;5052162;28;20488;-73
2022/07/09 01:26:51;;;;;;;0.20;0.20;;;15.30;99.90;;;;;;5051882;28;20094;-73
2022/07/09 01:29:17;;;;;;;0.47;0.47;;;15.30;99.90;;;;;;5052197;28;20049;-72
2022/07/09 01:31:42;;;;;;;1.17;0.35;;;15.30;99.90;;;;;;5052001;28;20048;-72
2022/07/09 01:34:08;;;;;;;0.68;0.50;;;15.30;99.90;;;;;;5052449;28;20384;-72
2022/07/09 01:36:33;;;;;;;1.45;0.47;;;15.30;99.90;;;;;;5052589;28;20072;-72
2022/07/09 01:38:59;;;;;;;0.63;0.57;;;15.30;99.90;;;;;;5052165;28;20424;-72
2022/07/09 01:41:25;;;;;;;2.55;0.75;;;15.30;99.90;;;;;;5052432;28;20045;-72
2022/07/09 01:43:50;;;;;;;0.90;0.52;;;15.30;99.90;;;;;;5052519;28;20530;-72
2022/07/09 01:46:16;;;;;;;0.65;0.40;;;15.40;99.90;;;;;;5051957;28;20041;-72
2022/07/09 01:48:42;;;;;;;0.32;0.22;;;15.40;99.90;;;;;;5052446;28;20075;-72
2022/07/09 01:51:09;;;;;;;0.20;0.20;;;15.40;99.90;;;;;;5052105;28;20041;-73
2022/07/09 01:53:35;;;;;;;0.63;0.63;;;15.40;99.90;;;;;;5052077;28;20380;-72
2022/07/09 01:56:06;;;;;;;0.57;0.47;;;15.40;99.90;;;;;;5052832;28;20045;-73
2022/07/09 01:58:33;;;;;;;0.65;0.63;;;15.40;99.90;;;;;;5052638;28;20041;-72
2022/07/09 02:00:58;;;;;;;0.88;0.82;;;15.40;99.90;;;;;;5052682;28;20067;-72
2022/07/09 02:03:24;;;;;;;0.63;0.63;;;15.40;99.90;;;;;;5052149;28;20045;-73
2022/07/09 02:05:49;;;;;;;0.55;0.50;;;15.40;99.90;;;;;;5052304;28;20040;-72
2022/07/09 02:08:15;;;;;;;0.22;0.22;;;15.40;99.90;;;;;;5052193;28;20075;-72
2022/07/09 02:10:41;;;;;;;1.27;1.17;;;15.40;99.90;;;;;;5052461;28;20049;-72
2022/07/09 02:13:06;;;;;;;0.22;0.22;;;15.40;99.90;;;;;;5052419;28;20049;-72
2022/07/09 02:15:33;;;;;;;0.32;0.32;;;15.30;99.90;;;;;;5052372;28;20049;-72
2022/07/09 02:17:58;;;;;;;3.38;2.13;;;15.30;99.90;;;;;;5052111;28;20098;-72
2022/07/09 02:20:24;;;;;;;0.47;0.32;;;15.30;99.90;;;;;;5052251;28;20041;-72
2022/07/09 02:22:50;;;;;;;0.43;0.43;;;15.20;99.90;;;;;;5035398;28;20041;-72
2022/07/09 02:25:16;;;;;;;1.20;0.88;;;15.20;99.90;;;;;;5052072;28;20037;-73
2022/07/09 02:27:41;;;;;;;1.00;0.90;;;15.20;99.90;;;;;;5052012;28;20399;-72
2022/07/09 02:30:07;;;;;;;1.00;0.70;;;15.20;99.90;;;;;;5052045;28;20037;-72
2022/07/09 02:32:33;;;;;;;0.32;0.32;;;15.30;99.90;;;;;;5051958;28;20052;-72
2022/07/09 02:34:59;;;;;;;0.80;0.47;;;15.30;99.90;;;;;;5052145;28;20041;-72
2022/07/09 02:37:24;;;;;;;3.00;1.38;;;15.30;99.90;;;;;;5052146;28;20083;-72
2022/07/09 02:39:50;;;;;;;2.15;0.88;;;15.40;99.90;;;;;;5051486;28;20128;-72
2022/07/09 02:42:15;;;;;;;2.15;1.15;;;15.40;99.90;;;;;;5051680;28;20053;-72
2022/07/09 02:44:43;;;;;;;0.75;0.60;;;15.50;99.90;;;;;;5051795;28;20462;-72
2022/07/09 02:47:09;;;;;;;2.13;1.52;;;16.60;99.90;;;;;;5051834;28;20080;-73
2022/07/09 02:49:34;;;;;;;0.30;0.30;;;15.50;99.90;;;;;;5051982;28;20087;-72
2022/07/09 02:52:01;;;;;;;0.30;0.30;;;15.40;99.90;;;;;;5051809;28;20033;-73
2022/07/09 02:54:27;;;;;;;0.47;0.28;;;15.40;99.90;;;;;;5051708;28;20471;-73
2022/07/09 02:56:53;;;;;;;1.77;0.85;;;15.30;99.90;;;;;;5051936;28;20045;-72
2022/07/09 02:59:19;;;;;;;1.38;0.50;;;15.30;99.90;;;;;;5051836;28;20110;-72
2022/07/09 03:01:45;;;;;;;1.05;0.70;;;15.30;99.90;;;;;;5051736;28;20037;-72
2022/07/09 03:04:10;;;;;;;0.63;0.63;;;15.30;99.90;;;;;;5051645;28;20037;-72
2022/07/09 03:06:36;;;;;;;0.50;0.50;;;15.30;99.90;;;;;;5051928;28;20052;-72
2022/07/09 03:09:02;;;;;;;0.70;0.52;;;15.20;99.90;;;;;;5051649;28;20110;-73
2022/07/09 03:11:28;;;;;;;0.20;0.15;;;15.20;99.90;;;;;;5034224;28;20045;-72
2022/07/09 03:13:54;;;;;;;0.75;0.70;;;15.10;99.90;;;;;;5051612;28;20498;-73
2022/07/09 03:16:19;;;;;;;0.40;0.40;;;15.10;99.90;;;;;;5051741;28;20120;-72
2022/07/09 03:18:45;;;;;;;0.98;0.43;;;15.00;99.90;;;;;;5033515;28;20044;-72
2022/07/09 03:21:11;;;;;;;0.65;0.47;;;15.00;99.90;;;;;;5051592;28;20088;-72
2022/07/09 03:23:37;;;;;;;0.65;0.55;;;14.90;99.90;;;;;;5051481;28;20139;-72
2022/07/09 03:26:04;;;;;;;0.98;0.80;;;14.80;99.90;;;;;;5051528;28;20063;-72
2022/07/09 03:28:30;;;;;;;1.33;1.08;;;14.70;99.90;;;;;;5051598;28;20041;-72
2022/07/09 03:30:56;;;;;;;0.95;0.57;;;14.60;99.90;;;;;;5051558;28;20103;-72
2022/07/09 03:33:21;;;;;;;0.57;0.52;;;14.60;99.90;;;;;;5051379;28;20141;-72
2022/07/09 03:35:47;;;;;;;0.00;0.00;;;14.60;99.90;;;;;;5051408;28;20041;-72
2022/07/09 03:38:12;;;;;;;0.55;0.52;;;14.50;99.90;;;;;;5051490;28;20052;-72
2022/07/09 03:40:38;;;;;;;1.90;1.00;;;14.50;99.90;;;;;;5051640;28;20403;-72
2022/07/09 03:43:04;;;;;;;0.98;0.40;;;14.50;99.90;;;;;;5051430;28;20045;-73
2022/07/09 03:45:29;;;;;;;1.52;0.57;;;14.50;99.90;;;;;;5051282;28;20116;-72
2022/07/09 03:47:55;;;;;;;0.03;0.03;;;14.50;99.90;;;;;;5051472;28;20110;-72
2022/07/09 03:50:20;;;;;;;1.40;0.60;;;14.50;99.90;;;;;;5051976;28;20128;-72
2022/07/09 03:52:46;;;;;;;0.00;0.00;;;14.60;99.90;;;;;;5054820;28;20120;-72
2022/07/09 03:55:12;;;;;;;0.22;0.15;;;14.60;99.90;;;;;;5054893;28;20033;-73
2022/07/09 03:57:37;;;;;;;0.63;0.45;;;14.60;99.90;;;;;;5054907;28;20049;-72
2022/07/09 04:00:06;;;;;;;4.10;1.45;;;14.70;99.90;;;;;;5054949;28;20072;-72
2022/07/09 04:02:31;;;;;;;0.95;0.47;;;14.70;99.90;;;;;;5054422;28;20037;-73
2022/07/09 04:04:57;;;;;;;2.83;1.50;;;14.70;99.90;;;;;;5054216;28;20086;-72
2022/07/09 04:07:26;;;;;;;0.22;0.22;;;14.70;99.90;;;;;;5054415;28;20051;-72
2022/07/09 04:09:54;;;;;;;2.10;1.02;;;14.70;99.90;;;;;;5054390;28;20484;-72
2022/07/09 04:12:21;;;;;;;0.20;0.15;;;14.70;99.90;;;;;;5054512;28;20041;-72
2022/07/09 04:14:47;;;;;;;0.88;0.40;;;14.70;99.90;;;;;;5054606;28;20041;-72
2022/07/09 04:17:13;;;;;;;0.68;0.57;;;14.80;99.90;;;;;;5054545;28;20057;-72
2022/07/09 04:19:38;;;;;;;0.75;0.43;;;14.80;99.90;;;;;;5054390;28;20063;-72
2022/07/09 04:22:04;;;;;;;3.78;1.15;;;14.90;99.90;;;;;;5054111;28;20060;-72
2022/07/09 04:24:30;;;;;;;1.63;1.52;;;14.90;99.90;;;;;;5053994;28;20073;-72
2022/07/09 04:26:56;;;;;;;0.47;0.47;;;15.00;99.90;;;;;;5054184;28;20433;-72
2022/07/09 04:29:22;;;;;;;0.05;0.05;;;15.00;99.90;;;;;;5054046;28;20033;-72
2022/07/09 04:31:47;;;;;;;0.22;0.22;;;15.00;99.90;;;;;;5053827;28;20041;-72
2022/07/09 04:34:13;;;;;;;1.05;0.85;;;15.00;99.90;;;;;;5053755;28;20033;-72
2022/07/09 04:36:38;;;;;;;4.28;0.80;;;15.10;99.90;;;;;;5053921;28;20132;-72
2022/07/09 04:39:04;;;;;;;1.67;0.45;;;15.10;99.90;;;;;;5053633;28;20053;-72
2022/07/09 04:41:30;;;;;;;0.93;0.60;;;15.20;99.90;;;;;;5053638;28;20110;-72
2022/07/09 04:43:55;;;;;;;0.52;0.52;;;15.20;99.90;;;;;;5053819;28;20153;-73
2022/07/09 04:46:22;;;;;;;8.02;2.28;;;15.30;99.90;;;;;;5053871;28;20529;-72
2022/07/09 04:48:50;;;;;;;0.82;0.60;;;15.30;99.90;;;;;;5053531;28;20072;-73
2022/07/09 04:51:16;;;;;;;11.18;0.45;;;15.40;99.90;;;;;;5053421;28;20112;-72
2022/07/09 04:53:42;;;;;;;0.10;0.10;;;15.50;99.90;;;;;;5053366;28;20559;-72
2022/07/09 04:56:07;;;;;;;1.83;0.93;;;15.60;99.90;;;;;;5053333;28;20080;-72
2022/07/09 04:58:33;;;;;;;0.08;0.08;;;15.60;99.90;;;;;;5053218;28;20088;-71
2022/07/09 05:00:59;;;;;;;0.13;0.13;;;15.70;99.90;;;;;;5052966;28;20049;-72
2022/07/09 05:03:25;;;;;;;1.15;0.88;;;15.70;99.90;;;;;;5053163;28;20053;-71
2022/07/09 05:05:51;;;;;;;2.35;1.17;;;15.80;99.90;;;;;;5053732;28;20168;-72
2022/07/09 05:08:18;;;;;;;0.52;0.45;;;15.80;99.90;;;;;;5053330;28;20045;-72
2022/07/09 05:10:44;;;;;;;1.95;0.77;;;15.90;99.90;;;;;;5035139;28;20086;-71
2022/07/09 05:13:09;;;;;;;0.30;0.30;;;16.00;99.90;;;;;;5053637;28;20088;-73
2022/07/09 05:15:35;;;;;;;0.85;0.70;;;16.10;99.90;;;;;;5053211;28;20045;-71
2022/07/09 05:18:01;;;;;;;0.65;0.52;;;16.20;99.90;;;;;;5052902;28;20582;-71
2022/07/09 05:20:26;;;;;;;0.45;0.32;;;16.30;99.90;;;;;;5053320;28;20048;-72
2022/07/09 05:22:52;;;;;;;0.30;0.30;;;16.30;99.90;;;;;;5052271;28;20037;-72
2022/07/09 05:25:18;;;;;;;3.15;1.17;;;16.40;99.90;;;;;;5052632;28;20045;-72
2022/07/09 05:27:45;;;;;;;0.10;0.10;;;16.50;99.90;;;;;;5053088;28;20057;-72
2022/07/09 05:30:14;;;;;;;0.40;0.30;;;16.70;99.90;;;;;;5053090;28;20052;-72
2022/07/09 05:32:41;;;;;;;1.45;0.75;;;17.20;99.90;;;;;;5052703;28;20368;-72
2022/07/09 05:35:07;;;;;;;1.00;0.77;;;17.10;99.90;;;;;;5052738;28;20049;-72
2022/07/09 05:37:33;;;;;;;0.57;0.52;;;17.30;99.90;;;;;;5052820;28;20052;-72
2022/07/09 05:40:00;;;;;;;0.55;0.43;;;17.40;99.90;;;;;;5034992;28;20426;-71
2022/07/09 05:42:25;;;;;;;5.20;1.90;;;17.40;99.90;;;;;;5034685;28;20057;-72
2022/07/09 05:44:51;;;;;;;0.75;0.57;;;17.40;99.90;;;;;;5052762;28;20044;-72
2022/07/09 05:47:17;;;;;;;0.80;0.57;;;17.40;99.90;;;;;;5052361;28;20178;-72
2022/07/09 05:49:42;;;;;;;1.92;0.95;;;17.40;99.90;;;;;;5052469;28;20041;-72
2022/07/09 05:52:08;;;;;;;0.45;0.38;;;17.50;99.90;;;;;;5052288;28;20124;-71
2022/07/09 05:54:34;;;;;;;0.17;0.17;;;17.50;99.90;;;;;;5052569;28;20057;-72
2022/07/09 05:56:59;;;;;;;0.03;0.00;;;17.50;99.90;;;;;;5052082;28;20041;-71
2022/07/09 05:59:25;;;;;;;0.52;0.45;;;17.60;99.90;;;;;;5052078;28;20056;-72
2022/07/09 06:01:51;;;;;;;42.70;1.50;;;17.60;99.90;;;;;;5052061;28;20075;-72
2022/07/09 06:04:16;;;;;;;0.65;0.40;;;17.70;99.90;;;;;;5039677;28;20072;-72
2022/07/09 06:06:42;;;;;;;1.65;0.35;;;17.60;99.90;;;;;;5041881;28;20041;-73
2022/07/09 06:09:07;;;;;;;0.57;0.43;;;17.70;99.90;;;;;;5052479;28;20094;-72
2022/07/09 06:11:33;;;;;;;0.00;0.00;;;17.80;99.90;;;;;;5037498;28;20469;-71
2022/07/09 06:13:59;;;;;;;1.55;0.68;;;17.90;99.90;;;;;;5051852;28;20048;-72
2022/07/09 06:16:24;;;;;;;0.52;0.35;;;17.90;99.90;;;;;;5052215;28;20098;-72
2022/07/09 06:18:53;;;;;;;0.03;0.03;;;18.00;99.90;;;;;;5052467;28;20410;-71
2022/07/09 06:21:18;;;;;;;3.65;0.52;;;17.90;99.90;;;;;;5052275;28;20044;-71
2022/07/09 06:23:44;;;;;;;0.63;0.55;;;17.90;99.90;;;;;;5052214;28;20072;-71
2022/07/09 06:26:10;;;;;;;0.40;0.38;;;17.90;99.90;;;;;;5052327;28;20041;-72
2022/07/09 06:28:38;;;;;;;0.70;0.32;;;18.00;99.90;;;;;;5052115;28;20037;-72
2022/07/09 06:31:04;;;;;;;0.63;0.22;;;18.00;99.90;;;;;;5052286;28;20128;-72
2022/07/09 06:33:29;;;;;;;0.32;0.32;;;17.90;99.90;;;;;;5051862;28;20399;-72
2022/07/09 06:35:55;;;;;;;0.65;0.50;;;18.00;99.90;;;;;;5051984;28;20053;-71
2022/07/09 06:38:21;;;;;;;0.85;0.43;;;18.30;99.90;;;;;;5052042;28;20041;-72
2022/07/09 06:40:46;;;;;;;0.60;0.47;;;18.20;99.90;;;;;;5034172;28;20556;-72
2022/07/09 06:43:12;;;;;;;0.70;0.50;;;18.30;99.90;;;;;;5052250;28;20474;-72
2022/07/09 06:45:38;;;;;;;1.55;0.77;;;18.40;99.90;;;;;;5052181;28;20426;-72
2022/07/09 06:48:07;;;;;;;0.28;0.28;;;18.50;99.90;;;;;;5051723;28;20052;-72
2022/07/09 06:50:32;;;;;;;0.30;0.30;;;18.60;99.90;;;;;;5051727;28;20144;-72
2022/07/09 06:52:58;;;;;;;2.50;1.58;;;18.80;99.90;;;;;;5051832;28;20511;-72
2022/07/09 06:55:23;;;;;;;0.00;0.00;;;19.00;99.90;;;;;;5052133;28;20106;-72
2022/07/09 06:57:49;;;;;;;0.63;0.30;;;19.10;99.90;;;;;;5051819;28;20077;-72
2022/07/09 07:00:14;;;;;;;0.30;0.30;;;19.90;99.90;;;;;;5051586;28;20136;-72
2022/07/09 07:02:40;;;;;;;0.00;0.00;;;18.90;99.90;;;;;;5050908;28;20049;-72
2022/07/09 07:05:06;;;;;;;2.05;0.90;;;18.90;99.90;;;;;;5051353;28;20400;-72
2022/07/09 07:07:31;;;;;;;0.68;0.68;;;18.80;99.90;;;;;;5051712;28;20118;-73
2022/07/09 07:09:57;;;;;;;0.15;0.08;;;18.70;99.90;;;;;;5051485;28;20444;-71
2022/07/09 07:12:23;;;;;;;1.00;0.60;;;18.90;99.90;;;;;;5051208;28;20045;-72
2022/07/09 07:14:48;;;;;;;0.13;0.13;;;18.90;99.90;;;;;;5051246;28;20037;-72
2022/07/09 07:17:14;;;;;;;0.35;0.30;;;19.00;99.90;;;;;;5051269;28;20049;-72
2022/07/09 07:19:39;;;;;;;0.45;0.40;;;19.10;99.90;;;;;;5051445;28;20041;-72
2022/07/09 07:22:05;;;;;;;0.10;0.10;;;19.10;99.90;;;;;;5051494;28;20407;-71
2022/07/09 07:24:31;;;;;;;0.00;0.00;;;19.10;99.90;;;;;;5051424;28;20383;-72
2022/07/09 07:26:57;;;;;;;0.52;0.45;;;19.10;99.90;;;;;;5036410;28;20390;-72
2022/07/09 07:29:23;;;;;;;0.15;0.15;;;19.20;99.90;;;;;;5055130;28;20053;-72
2022/07/09 07:31:49;;;;;;;0.20;0.20;;;19.40;99.90;;;;;;5054920;28;20048;-73
2022/07/09 07:34:15;;;;;;;1.60;0.95;;;19.50;99.90;;;;;;5036976;28;20356;-72
2022/07/09 07:36:41;;;;;;;0.35;0.30;;;19.60;99.90;;;;;;5055207;28;20349;-72
2022/07/09 07:39:06;;;;;;;4.03;0.82;;;19.70;99.90;;;;;;5054886;28;20094;-72
2022/07/09 07:41:32;;;;;;;0.10;0.10;;;20.00;99.90;;;;;;5054941;28;20045;-71
2022/07/09 07:43:58;;;;;;;0.95;0.30;;;20.40;99.90;;;;;;5054829;28;20041;-72
2022/07/09 07:46:24;;;;;;;0.17;0.17;;;20.60;99.90;;;;;;5055009;28;20317;-72
2022/07/09 07:48:50;;;;;;;1.00;0.88;;;21.00;99.90;;;;;;5054744;28;20124;-73
2022/07/09 07:51:16;;;;;;;0.00;0.00;;;21.60;99.90;;;;;;5055104;28;20049;-72
2022/07/09 07:53:42;;;;;;;2.17;0.80;;;21.60;99.90;;;;;;5055018;28;20049;-72
2022/07/09 07:56:08;;;;;;;0.32;0.17;;;21.70;99.90;;;;;;5055026;28;20041;-74
2022/07/09 07:58:35;;;;;;;0.00;0.00;;;21.80;99.90;;;;;;5054848;28;20044;-74
2022/07/09 08:01:00;;;;;;;0.17;0.15;;;21.70;99.90;;;;;;5054672;28;20072;-74
2022/07/09 08:03:27;;;;;;;0.10;0.10;;;21.50;99.90;;;;;;5054242;28;20043;-74
2022/07/09 08:05:53;;;;;;;0.20;0.10;;;21.40;99.90;;;;;;5053451;28;20116;-73
2022/07/09 08:08:19;;;;;;;0.28;0.20;;;21.40;99.90;;;;;;5048785;28;20081;-73
2022/07/09 08:10:45;;;;;;;0.30;0.10;;;21.70;99.90;;;;;;5051204;28;20476;-73
2022/07/09 08:13:12;;;;;;;0.30;0.30;;;21.90;99.90;;;;;;5053887;28;20047;-73
2022/07/09 08:15:38;;;;;;;0.00;0.00;;;22.30;99.90;;;;;;5046857;28;20475;-73
2022/07/09 08:18:04;;;;;;;0.00;0.00;;;22.70;99.90;;;;;;5054023;28;20052;-73
2022/07/09 08:20:30;;;;;;;0.57;0.55;;;22.70;99.90;;;;;;5053846;28;20043;-73
2022/07/09 08:22:55;;;;;;;0.10;0.10;;;22.40;99.90;;;;;;5053671;28;20033;-73
2022/07/09 08:25:21;;;;;;;11.85;0.65;;;23.10;99.90;;;;;;5030619;28;20495;-73
2022/07/09 08:27:49;;;;;;;0.38;0.22;;;23.00;99.90;;;;;;5053709;28;20037;-74
2022/07/09 08:30:14;;;;;;;0.55;0.38;;;22.80;99.90;;;;;;5053957;28;20053;-74
2022/07/09 08:32:40;;;;;;;0.15;0.10;;;22.90;99.90;;;;;;5053634;28;20040;-74
2022/07/09 08:35:07;;;;;;;0.10;0.10;;;23.20;99.90;;;;;;5051512;28;21103;-73
2022/07/09 08:37:32;;;;;;;0.05;0.05;;;22.90;99.90;;;;;;5053486;28;20083;-73
2022/07/09 08:39:59;;;;;;;0.55;0.50;;;22.10;99.90;;;;;;5053982;28;20077;-73
2022/07/09 08:42:25;;;;;;;1.27;0.52;;;22.00;99.90;;;;;;5051094;28;20080;-74
2022/07/09 08:44:52;;;;;;;0.00;0.00;;;22.10;99.90;;;;;;5050690;28;20032;-74
2022/07/09 08:47:18;;;;;;;1.58;0.47;;;23.70;99.90;;;;;;5051306;28;20554;-73
2022/07/09 08:49:46;;;;;;;0.15;0.08;;;23.80;99.90;;;;;;5031462;28;20166;-73
2022/07/09 08:52:13;;;;;;;0.10;0.10;;;24.30;99.90;;;;;;5049578;28;20049;-73
2022/07/09 08:54:41;;;;;;;1.38;0.55;;;24.60;95.60;;;;;;5049021;28;20041;-73
2022/07/09 08:57:07;;;;;;;0.00;0.00;;;25.30;93.00;;;;;;5047239;28;20037;-71
2022/07/09 08:59:33;;;;;;;1.17;0.80;;;26.60;79.30;;;;;;5047759;28;20060;-74
2022/07/09 09:02:05;;;;;;;0.00;0.00;;;26.90;65.80;;;;;;5049148;28;20115;-74
2022/07/09 09:04:34;;;;;;;1.15;0.50;;;24.90;75.20;;;;;;5048878;28;20098;-74
2022/07/09 09:07:10;;;;;;;0.10;0.10;;;25.00;83.30;;;;;;5048986;28;20093;-73
2022/07/09 09:09:39;;;;;;;0.47;0.10;;;24.50;88.40;;;;;;5048850;28;20059;-73
2022/07/09 09:12:05;;;;;;;0.00;0.00;;;24.30;90.20;;;;;;5048989;28;20036;-73
2022/07/09 09:14:31;;;;;;;0.20;0.20;;;23.70;99.30;;;;;;5048490;28;20128;-73
2022/07/09 09:17:14;;;;;;;0.63;0.28;;;23.50;99.90;;;;;;5049249;28;20096;-74
2022/07/09 09:19:40;;;;;;;0.00;0.00;;;24.50;97.10;;;;;;5049327;28;20086;-74
2022/07/09 09:22:07;;;;;;;0.13;0.05;;;25.20;91.40;;;;;;5049005;28;20116;-73
2022/07/09 09:24:34;;;;;;;0.30;0.20;;;25.40;65.10;;;;;;5031223;28;20098;-73
2022/07/09 09:27:00;;;;;;;0.10;0.10;;;26.00;59.70;;;;;;5048510;28;20072;-73
2022/07/09 09:29:26;;;;;;;1.80;0.52;;;24.80;67.20;;;;;;5048835;28;20080;-73
2022/07/09 09:31:52;;;;;;;0.00;0.00;;;24.10;77.90;;;;;;5048910;28;20041;-73
2022/07/09 09:34:18;;;;;;;0.20;0.20;;;23.30;90.70;;;;;;5048025;28;20045;-73
2022/07/09 09:36:52;;;;;;;0.00;0.00;;;23.10;94.20;;;;;;5048271;28;20048;-73
2022/07/09 09:39:25;;;;;;;0.80;0.63;;;23.80;92.10;;;;;;5048440;28;20112;-74
2022/07/09 09:41:53;;;;;;;1.33;0.80;;;24.40;84.30;;;;;;5048877;28;20049;-73
2022/07/09 09:44:21;;;;;;;0.00;0.00;;;24.90;63.80;;;;;;5048312;28;20049;-74
2022/07/09 09:46:47;;;;;;;0.13;0.10;;;24.70;63.80;;;;;;5048321;28;20415;-73
2022/07/09 09:49:15;;;;;;;0.05;0.05;;;24.30;72.70;;;;;;5030053;28;20057;-72
2022/07/09 09:51:51;;;;;;;0.28;0.10;;;24.30;76.50;;;;;;5048450;28;20057;-73
2022/07/09 09:54:18;;;;;;;0.30;0.10;;;24.40;65.50;;;;;;5048055;28;20128;-73
2022/07/09 09:56:44;;;;;;;0.65;0.35;;;24.20;73.40;;;;;;5048313;28;20399;-74
2022/07/09 09:59:11;;;;;;;0.17;0.10;;;23.70;83.70;;;;;;5047949;28;20052;-73
2022/07/09 10:01:39;;;;;;;2.33;0.73;;;22.90;91.50;;;;;;5048394;28;20057;-73
2022/07/09 10:04:05;;;;;;;2.33;0.43;;;22.60;96.50;;;;;;5047786;28;20060;-73
2022/07/09 10:06:33;;;;;;;0.47;0.43;;;22.60;99.70;;;;;;5048207;28;20132;-73
2022/07/09 10:09:01;;;;;;;0.10;0.10;;;23.20;95.10;;;;;;5048332;28;20041;-73
2022/07/09 10:11:47;;;;;;;0.00;0.00;;;23.70;94.10;;;;;;5048070;28;20491;-74
2022/07/09 10:14:29;;;;;;;1.38;0.60;;;23.50;92.40;;;;;;5048005;28;20052;-74
2022/07/09 10:16:55;;;;;;;0.28;0.20;;;24.10;74.00;;;;;;5047170;28;20037;-73
2022/07/09 10:19:24;;;;;;;0.32;0.25;;;24.60;62.50;;;;;;5047012;28;20763;-73
2022/07/09 10:21:53;;;;;;;0.00;0.00;;;24.50;64.80;;;;;;5044504;28;20123;-73
2022/07/09 10:24:31;;;;;;;2.53;0.57;;;25.00;54.40;;;;;;5047501;28;20048;-73
2022/07/09 10:27:09;;;;;;;3.00;0.90;;;24.50;49.90;;;;;;5048244;28;20048;-73
2022/07/09 10:29:56;;;;;;;1.38;0.38;;;23.70;46.20;;;;;;5048122;28;20051;-74
2022/07/09 10:32:29;;;;;;;0.40;0.38;;;24.10;57.50;;;;;;5047411;28;20052;-73
2022/07/09 10:35:00;;;;;;;0.63;0.20;;;23.90;63.10;;;;;;5046919;28;20040;-74
2022/07/09 10:37:41;;;;;;;0.20;0.20;;;24.30;62.00;;;;;;5047316;28;20115;-74
2022/07/09 10:40:16;;;;;;;0.20;0.20;;;24.80;63.00;;;;;;5047368;28;20060;-74
2022/07/09 10:42:43;;;;;;;;;;;25.70;49.00;;;;;;5047678;28;20048;-74
2022/07/09 10:45:20;;;;;;;0.17;0.17;;;25.40;46.90;;;;;;5044086;28;19924;-74
2022/07/09 10:47:49;;;;;;;0.57;0.43;;;26.30;34.80;;;;;;5045506;28;20052;-74
2022/07/09 10:50:15;;;;;;;0.40;0.35;;;26.60;29.50;;;;;;5047947;28;20083;-74
2022/07/09 10:52:41;;;;;;;0.25;0.08;;;25.60;44.50;;;;;;5047517;28;20087;-73
2022/07/09 10:55:07;;;;;;;1.10;0.47;;;24.60;67.70;;;;;;5047551;28;20041;-73
2022/07/09 10:57:35;;;;;;;0.20;0.20;;;23.30;88.00;;;;;;5047720;28;20060;-74
2022/07/09 11:00:00;;;;;;;1.40;0.55;;;22.30;98.50;;;;;;5049616;28;20578;-74
2022/07/09 11:02:26;;;;;;;3.60;0.90;;;22.50;99.90;;;;;;5052223;28;20124;-72
2022/07/09 11:04:52;;;;;;;2.28;0.50;;;22.00;99.90;;;;;;5054000;28;20041;-73
2022/07/09 11:07:20;;;;;;;0.20;0.20;;;22.10;99.90;;;;;;5054202;28;20087;-74
2022/07/09 11:09:46;;;;;;;10.57;1.20;;;22.40;99.90;;;;;;5053054;28;20128;-72
2022/07/09 11:12:18;;;;;;;4.20;0.45;;;22.20;99.90;;;;;;5053315;28;20128;-73
2022/07/09 11:14:51;;;;;;;0.77;0.50;;;21.90;99.90;;;;;;5053306;28;20080;-72
2022/07/09 11:17:18;;;;;;;2.97;0.90;;;22.20;99.90;;;;;;5053270;28;20072;-72
2022/07/09 11:19:44;;;;;;;0.20;0.10;;;22.70;99.90;;;;;;5050493;28;20045;-72
2022/07/09 11:22:09;;;;;;;0.20;0.10;;;22.90;96.30;;;;;;5053501;28;20056;-71
2022/07/09 11:24:35;;;;;;;0.70;0.15;;;22.80;98.10;;;;;;5043824;28;20044;-72
2022/07/09 11:27:10;;;;;;;0.73;0.43;;;23.50;95.80;;;;;;5052499;28;20048;-72
2022/07/09 11:29:36;;;;;;;0.10;0.10;;;23.80;87.00;;;;;;5051161;28;20037;-72
2022/07/09 11:32:02;;;;;;;0.32;0.22;;;23.70;88.80;;;;;;5051473;28;20049;-73
2022/07/09 11:34:31;;;;;;;0.00;0.00;;;22.90;86.40;;;;;;5051736;28;20036;-73
2022/07/09 11:36:58;;;;;;;2.92;0.38;;;21.80;92.80;;;;;;5051246;28;20041;-71
2022/07/09 11:39:27;;;;;;;0.47;0.38;;;21.90;96.00;;;;;;5051226;28;20081;-72
2022/07/09 11:41:54;;;;;;;0.55;0.40;;;21.90;91.30;;;;;;5033311;28;20088;-73
2022/07/09 11:44:30;;;;;;;1.48;0.52;;;22.70;93.10;;;;;;5050832;28;20059;-72
2022/07/09 11:47:06;;;;;;;0.38;0.38;;;23.00;64.10;;;;;;5051262;28;20053;-71
2022/07/09 11:49:32;;;;;;;;;;;22.90;63.60;;;;;;5051634;28;20037;-73
2022/07/09 11:51:57;;;;;;;;;;;23.90;71.30;;;;;;5051266;28;19927;-72
2022/07/09 11:54:27;;;;;;;1.23;0.38;;;23.90;49.40;;;;;;5051081;28;19997;-73
2022/07/09 11:56:53;;;;;;;0.10;0.10;;;23.80;55.10;;;;;;5050907;28;20055;-72
2022/07/09 11:59:31;;;;;;;0.05;0.03;;;23.70;49.80;;;;;;5053669;28;20506;-72
2022/07/09 12:01:58;;;;;;;0.00;0.00;;;24.20;37.90;;;;;;5070406;28;20048;-72
2022/07/09 12:04:23;;;;;;;1.25;0.57;;;24.50;25.80;;;;;;5070382;28;20036;-72
2022/07/09 12:06:50;;;;;;;0.85;0.45;;;25.10;22.60;;;;;;5070456;28;20506;-72
2022/07/09 12:09:28;;;;;;;2.35;0.70;;;24.50;22.80;;;;;;5070211;28;20048;-72
2022/07/09 12:11:54;;;;;;;0.47;0.32;;;24.10;26.40;;;;;;5068928;28;20055;-72
2022/07/09 12:14:19;;;;;;;0.00;0.00;;;24.40;24.40;;;;;;5069881;28;20040;-72
2022/07/09 12:16:45;;;;;;;0.35;0.20;;;24.60;28.20;;;;;;5070405;28;20045;-72
2022/07/09 12:19:10;;;;;;;0.00;0.00;;;24.50;20.50;;;;;;5070073;28;20128;-72
2022/07/09 12:21:36;;;;;;;0.05;0.03;;;25.00;26.70;;;;;;5070119;28;20044;-72
2022/07/09 12:24:01;;;;;;;3.42;0.47;;;25.30;17.50;;;;;;5070096;28;20048;-72
2022/07/09 12:26:27;;;;;;;0.00;0.00;;;24.20;24.30;;;;;;5070712;28;20052;-72
2022/07/09 12:28:52;;;;;;;0.10;0.00;;;24.10;30.80;;;;;;5070256;28;20463;-71
2022/07/09 12:31:18;;;;;;;0.13;0.13;;;24.00;29.90;;;;;;5070119;28;20055;-72
2022/07/09 12:33:44;;;;;;;0.00;0.00;;;23.90;34.80;;;;;;5069811;28;20040;-73
2022/07/09 12:36:10;;;;;;;0.08;0.08;;;24.10;32.00;;;;;;5069698;28;20129;-73
2022/07/09 12:38:35;;;;;;;5.93;1.45;;;25.10;18.40;;;;;;5071475;28;20462;-74
2022/07/09 12:41:01;;;;;;;0.10;0.10;;;26.00;17.60;;;;;;5072555;28;20044;-73
2022/07/09 12:43:26;;;;;;;0.00;0.00;;;26.70;10.30;;;;;;5072357;28;20045;-73
2022/07/09 12:45:52;;;;;;;0.00;0.00;;;26.90;9.30;;;;;;5072917;28;20123;-73